createdAt,value
2023-03-05T00:03:15.470Z,69.20
2023-03-05T00:08:14.320Z,68.97
2023-03-05T00:13:13.055Z,68.01
2023-03-05T00:18:13.237Z,67.60
2023-03-05T00:23:12.006Z,68.05
2023-03-05T00:28:11.206Z,67.81
2023-03-05T00:33:10.995Z,68.00
2023-03-05T00:38:11.684Z,67.04
2023-03-05T00:43:11.108Z,67.39
2023-03-05T00:48:10.715Z,67.17
2023-03-05T00:53:10.966Z,66.72
2023-03-05T00:58:09.843Z,67.58
2023-03-05T01:03:09.252Z,68.26
2023-03-05T01:08:08.095Z,69.44
2023-03-05T01:13:08.334Z,69.79
2023-03-05T01:18:07.120Z,68.77
2023-03-05T01:23:05.907Z,69.42
2023-03-05T01:28:04.994Z,69.95
2023-03-05T01:33:05.770Z,69.75
2023-03-05T01:38:04.550Z,69.52
2023-03-05T01:43:22.366Z,69.83
2023-03-05T01:48:22.715Z,70.89
2023-03-05T01:53:21.766Z,71.57
2023-03-05T01:58:20.603Z,71.81
2023-03-05T02:03:21.372Z,71.05
2023-03-05T02:08:23.708Z,70.27
2023-03-05T02:13:24.927Z,70.24
2023-03-05T02:18:23.994Z,71.32
2023-03-05T02:23:26.078Z,70.89
2023-03-05T02:28:27.790Z,72.07
2023-03-05T02:33:26.696Z,72.41
2023-03-05T02:38:26.905Z,73.55
2023-03-05T02:43:25.668Z,72.72
2023-03-05T02:48:25.274Z,72.32
2023-03-05T02:53:24.329Z,71.66
2023-03-05T02:58:24.857Z,72.20
2023-03-05T03:03:23.953Z,72.68
2023-03-05T03:08:22.845Z,72.07
2023-03-05T03:13:21.616Z,72.98
2023-03-05T03:18:21.886Z,73.62
2023-03-05T03:23:20.594Z,72.26
2023-03-05T03:28:19.437Z,72.66
2023-03-05T03:33:18.373Z,72.08
2023-03-05T03:38:18.559Z,72.21
2023-03-05T03:43:17.278Z,72.14
2023-03-05T03:48:16.048Z,70.76
2023-03-05T03:53:17.526Z,71.28
2023-03-05T03:58:20.179Z,71.42
2023-03-05T04:03:18.921Z,71.75
2023-03-05T04:08:17.739Z,72.23
2023-03-05T04:13:17.859Z,71.24
2023-03-05T04:18:16.629Z,71.04
2023-03-05T04:23:15.391Z,70.82
2023-03-05T04:28:14.272Z,71.79
2023-03-05T04:33:14.422Z,72.05
2023-03-05T04:38:13.468Z,73.22
2023-03-05T04:43:12.394Z,71.58
2023-03-05T04:48:12.457Z,70.81
2023-03-05T04:53:12.602Z,71.98
2023-03-05T04:58:11.555Z,72.28
2023-03-05T05:03:10.554Z,71.89
2023-03-05T05:08:09.345Z,72.49
2023-03-05T05:13:09.558Z,73.39
2023-03-05T05:18:08.327Z,72.74
2023-03-05T05:23:07.127Z,73.58
2023-03-05T05:28:06.394Z,72.26
2023-03-05T05:33:06.600Z,72.83
2023-03-05T05:38:05.400Z,72.58
2023-03-05T05:43:04.296Z,71.87
2023-03-05T05:48:03.128Z,71.45
2023-03-05T05:53:05.408Z,71.58
2023-03-05T05:58:04.374Z,72.24
2023-03-05T06:03:03.175Z,71.83
2023-03-05T06:08:03.342Z,71.31
2023-03-05T06:13:02.140Z,71.39
2023-03-05T06:18:01.169Z,71.32
2023-03-05T06:23:00.098Z,70.23
2023-03-05T06:28:00.859Z,70.04
2023-03-05T06:32:59.691Z,69.40
2023-03-05T06:37:58.573Z,69.66
2023-03-05T06:42:57.249Z,68.32
2023-03-05T06:47:57.446Z,67.91
2023-03-05T06:52:56.296Z,67.99
2023-03-05T06:57:55.139Z,69.23
2023-03-05T07:02:53.954Z,68.22
2023-03-05T07:07:54.230Z,69.40
2023-03-05T07:12:52.998Z,68.81
2023-03-05T07:17:52.129Z,69.03
2023-03-05T07:22:50.995Z,67.38
2023-03-05T07:27:53.655Z,66.44
2023-03-05T07:32:52.371Z,65.77
2023-03-05T07:37:51.160Z,65.44
2023-03-05T07:42:51.374Z,65.33
2023-03-05T07:48:00.381Z,65.53
2023-03-05T07:52:59.258Z,65.23
2023-03-05T07:57:59.502Z,66.56
2023-03-05T08:02:58.234Z,65.39
2023-03-05T08:07:57.009Z,66.86
2023-03-05T08:12:55.921Z,66.31
2023-03-05T08:17:56.232Z,66.88
2023-03-05T08:22:54.975Z,66.55
2023-03-05T08:27:53.889Z,67.14
2023-03-05T08:32:53.138Z,66.70
2023-03-05T08:37:53.277Z,66.34
2023-03-05T08:42:52.437Z,66.09
2023-03-05T08:47:51.358Z,65.00
2023-03-05T08:52:50.583Z,66.13
2023-03-05T08:57:50.852Z,65.23
2023-03-05T09:02:49.900Z,65.00
2023-03-05T09:07:48.656Z,64.21
2023-03-05T09:12:49.283Z,62.87
2023-03-05T09:17:49.512Z,61.43
2023-03-05T09:22:48.267Z,58.77
2023-03-05T09:27:46.964Z,57.14
2023-03-05T09:32:45.867Z,57.05
2023-03-05T09:37:46.137Z,56.88
2023-03-05T09:42:59.989Z,54.39
2023-03-05T09:48:08.459Z,54.45
2023-03-05T09:53:21.906Z,52.51
2023-03-05T09:58:30.977Z,51.76
2023-03-05T10:03:33.359Z,49.48
2023-03-05T10:08:46.731Z,49.84
2023-03-05T10:13:47.331Z,47.29
2023-03-05T10:18:54.245Z,46.26
2023-03-05T10:24:06.059Z,47.50
2023-03-05T10:29:20.367Z,48.45
2023-03-05T10:34:50.342Z,49.64
2023-03-05T10:40:05.849Z,47.90
2023-03-05T10:45:16.555Z,47.16
2023-03-05T10:50:19.654Z,45.98
2023-03-05T10:55:22.260Z,47.35
2023-03-05T11:00:22.713Z,46.62
2023-03-05T11:05:47.158Z,45.16
2023-03-05T11:10:49.426Z,45.54
2023-03-05T11:16:01.316Z,45.55
2023-03-05T11:21:10.176Z,46.79
2023-03-05T11:26:22.778Z,45.17
2023-03-05T11:31:27.087Z,45.15
2023-03-05T11:36:27.963Z,44.02
2023-03-05T11:41:40.645Z,45.86
2023-03-05T11:46:43.977Z,45.13
2023-03-05T11:51:47.288Z,43.18
2023-03-05T11:56:48.629Z,42.32
2023-03-05T12:01:50.445Z,42.33
2023-03-05T12:06:52.468Z,41.30
2023-03-05T12:11:59.152Z,41.84
2023-03-05T12:17:07.276Z,39.09
2023-03-05T12:22:16.448Z,38.24
2023-03-05T12:27:35.219Z,36.64
2023-03-05T12:33:02.385Z,36.11
2023-03-05T12:38:24.315Z,35.89
2023-03-05T12:43:33.397Z,37.01
2023-03-05T12:48:45.749Z,36.58
2023-03-05T12:53:47.315Z,36.25
2023-03-05T12:58:50.940Z,36.96
2023-03-05T13:03:55.767Z,35.40
2023-03-05T13:09:00.179Z,34.98
2023-03-05T13:14:00.797Z,33.26
2023-03-05T13:19:02.770Z,34.63
2023-03-05T13:24:04.745Z,33.52
2023-03-05T13:29:10.623Z,32.42
2023-03-05T13:34:15.550Z,32.99
2023-03-05T13:39:22.317Z,34.14
2023-03-05T13:44:22.992Z,34.06
2023-03-05T13:49:24.393Z,34.33
2023-03-05T13:54:25.000Z,34.04
2023-03-05T13:59:28.558Z,33.43
2023-03-05T14:04:29.458Z,33.72
2023-03-05T14:09:30.629Z,33.11
2023-03-05T14:14:34.009Z,32.78
2023-03-05T14:19:36.776Z,33.38
2023-03-05T14:24:35.856Z,33.48
2023-03-05T14:29:37.090Z,34.42
2023-03-05T14:34:38.476Z,34.75
2023-03-05T14:39:51.157Z,35.03
2023-03-05T14:44:55.806Z,35.55
2023-03-05T14:49:54.817Z,36.19
2023-03-05T14:55:04.697Z,35.54
2023-03-05T15:00:08.783Z,34.74
2023-03-05T15:05:12.584Z,34.51
2023-03-05T15:10:17.755Z,33.98
2023-03-05T15:15:20.094Z,34.73
2023-03-05T15:20:22.239Z,35.19
2023-03-05T15:25:23.274Z,35.07
2023-03-05T15:30:29.561Z,35.16
2023-03-05T15:35:31.993Z,36.25
2023-03-05T15:40:31.703Z,36.06
2023-03-05T15:45:31.914Z,36.43
2023-03-05T15:50:30.889Z,36.77
2023-03-05T15:55:31.597Z,36.82
2023-03-05T16:00:33.176Z,38.33
2023-03-05T16:05:35.250Z,38.86
2023-03-05T16:10:36.726Z,39.34
2023-03-05T16:15:39.629Z,39.77
2023-03-05T16:20:40.378Z,40.60
2023-03-05T16:25:40.396Z,41.25
2023-03-05T16:30:43.351Z,41.62
2023-03-05T16:35:43.231Z,42.19
2023-03-05T16:41:06.743Z,42.72
2023-03-05T16:46:06.344Z,43.02
2023-03-05T16:51:07.167Z,43.37
2023-03-05T16:56:09.506Z,43.88
2023-03-05T17:01:15.583Z,44.47
2023-03-05T17:06:19.242Z,45.15
2023-03-05T17:11:20.856Z,45.24
2023-03-05T17:16:22.378Z,45.76
2023-03-05T17:21:21.519Z,46.39
2023-03-05T17:26:22.182Z,46.38
2023-03-05T17:31:22.329Z,47.50
2023-03-05T17:36:21.941Z,47.92
2023-03-05T17:41:22.092Z,48.19
2023-03-05T17:46:22.297Z,48.75
2023-03-05T17:51:21.199Z,49.23
2023-03-05T17:56:22.234Z,48.99
2023-03-05T18:01:27.545Z,49.42
2023-03-05T18:06:26.753Z,50.38
2023-03-05T18:11:25.800Z,51.92
2023-03-05T18:16:26.100Z,52.14
2023-03-05T18:21:28.249Z,51.87
2023-03-05T18:26:27.037Z,51.89
2023-03-05T18:31:27.578Z,52.95
2023-03-05T18:36:27.945Z,53.35
2023-03-05T18:41:29.222Z,53.25
2023-03-05T18:46:33.712Z,54.06
2023-03-05T18:51:33.041Z,54.91
2023-03-05T18:56:31.955Z,55.06
2023-03-05T19:01:32.253Z,54.78
2023-03-05T19:06:31.107Z,55.26
2023-03-05T19:11:29.909Z,55.98
2023-03-05T19:16:39.418Z,56.20
2023-03-05T19:21:38.233Z,55.42
2023-03-05T19:26:36.937Z,55.28
2023-03-05T19:31:38.378Z,56.55
2023-03-05T19:36:37.757Z,56.24
2023-03-05T19:41:37.232Z,55.42
2023-03-05T19:46:37.425Z,54.42
2023-03-05T19:51:39.943Z,55.51
2023-03-05T19:56:39.326Z,55.38
2023-03-05T20:01:39.591Z,55.50
2023-03-05T20:06:38.445Z,55.35
2023-03-05T20:11:37.529Z,54.91
2023-03-05T20:16:38.794Z,54.73
2023-03-05T20:21:41.934Z,55.19
2023-03-05T20:26:41.683Z,55.35
2023-03-05T20:31:42.095Z,55.23
2023-03-05T20:36:42.468Z,55.01
2023-03-05T20:41:41.447Z,55.44
2023-03-05T20:47:26.322Z,55.16
2023-03-05T20:52:29.938Z,54.73
2023-03-05T20:57:28.427Z,54.59
2023-03-05T21:02:27.395Z,54.18
2023-03-05T21:07:29.697Z,53.95
2023-03-05T21:12:31.549Z,54.36
2023-03-05T21:17:34.557Z,53.97
2023-03-05T21:22:34.953Z,54.67
2023-03-05T21:27:33.796Z,54.70
2023-03-05T21:32:32.656Z,54.51
2023-03-05T21:37:31.446Z,54.20
2023-03-05T21:42:34.686Z,54.25
2023-03-05T21:47:33.826Z,54.13
2023-03-05T21:52:32.854Z,54.11
2023-03-05T21:57:32.528Z,54.56
2023-03-05T22:02:33.053Z,53.93
2023-03-05T22:07:31.782Z,53.89
2023-03-05T22:13:13.404Z,53.24
2023-03-05T22:18:14.031Z,53.78
2023-03-05T22:23:13.520Z,53.94
2023-03-05T22:28:16.294Z,53.71
2023-03-05T22:33:32.594Z,54.34
2023-03-05T22:38:31.325Z,53.44
2023-03-05T22:43:30.105Z,53.20
2023-03-05T22:48:28.776Z,52.24
2023-03-05T22:53:28.967Z,52.00
2023-03-05T22:58:27.735Z,51.95
2023-03-05T23:03:26.778Z,51.99
2023-03-05T23:08:25.499Z,51.37
2023-03-05T23:13:25.608Z,51.55
2023-03-05T23:18:24.315Z,51.17
2023-03-05T23:23:22.996Z,51.13
2023-03-05T23:28:21.911Z,50.65
2023-03-05T23:33:23.990Z,51.03
2023-03-05T23:38:23.820Z,51.45
2023-03-05T23:43:25.811Z,52.05
2023-03-05T23:48:27.259Z,51.70
2023-03-05T23:53:27.977Z,51.44
2023-03-05T23:58:26.819Z,52.80
